createdAt,value
2023-12-01T00:00:14.964Z,93.401
2023-12-01T00:01:15.770Z,93.577
2023-12-01T00:02:15.752Z,93.674
2023-12-01T00:03:15.103Z,93.722
2023-12-01T00:04:16.116Z,93.895
2023-12-01T00:05:14.927Z,93.702
2023-12-01T00:06:15.613Z,93.752
2023-12-01T00:07:15.171Z,93.758
2023-12-01T00:08:15.717Z,93.813
2023-12-01T00:09:15.252Z,93.863
2023-12-01T00:10:15.985Z,93.807
2023-12-01T00:12:15.997Z,93.819
2023-12-01T00:13:15.680Z,93.769
2023-12-01T00:16:15.716Z,93.727
2023-12-01T00:17:15.432Z,93.525
2023-12-01T00:18:15.174Z,93.636
2023-12-01T00:19:16.276Z,93.453
2023-12-01T00:20:15.587Z,93.428
2023-12-01T00:21:15.102Z,93.313
2023-12-01T00:22:15.757Z,93.426
2023-12-01T00:23:15.792Z,93.495
2023-12-01T00:24:15.827Z,93.420
2023-12-01T00:25:16.030Z,93.315
2023-12-01T00:27:16.141Z,93.241
2023-12-01T00:28:16.183Z,93.353
2023-12-01T00:30:15.508Z,93.472
2023-12-01T00:31:15.166Z,93.514
2023-12-01T00:32:15.957Z,93.409
2023-12-01T00:33:15.954Z,93.237
2023-12-01T00:34:15.240Z,93.514
2023-12-01T00:35:15.599Z,93.435
2023-12-01T00:36:15.671Z,93.376
2023-12-01T00:37:15.777Z,93.483
2023-12-01T00:38:15.830Z,93.628
2023-12-01T00:39:15.855Z,93.390
2023-12-01T00:40:16.135Z,93.414
2023-12-01T00:41:15.085Z,93.409
2023-12-01T00:42:15.679Z,93.435
2023-12-01T00:43:15.908Z,93.365
2023-12-01T00:44:15.832Z,93.323
2023-12-01T00:45:15.342Z,93.556
2023-12-01T00:46:15.981Z,93.649
2023-12-01T00:47:15.790Z,93.514
2023-12-01T00:49:16.099Z,93.725
2023-12-01T00:52:15.856Z,93.874
2023-12-01T00:53:15.909Z,93.802
2023-12-01T00:54:15.955Z,93.847
2023-12-01T00:55:16.115Z,94.015
2023-12-01T00:56:15.624Z,94.048
2023-12-01T00:57:15.050Z,94.101
2023-12-01T00:58:15.731Z,94.229
2023-12-01T00:59:15.253Z,94.439
2023-12-01T01:00:15.998Z,94.309
2023-12-01T01:01:15.808Z,94.387
2023-12-01T01:02:15.645Z,94.578
2023-12-01T01:03:15.761Z,94.797
2023-12-01T01:04:18.810Z,94.902
2023-12-01T01:05:15.744Z,94.992
2023-12-01T01:06:15.211Z,94.805
2023-12-01T01:07:15.889Z,94.868
2023-12-01T01:08:16.028Z,95.003
2023-12-01T01:09:15.556Z,95.007
2023-12-01T01:11:15.742Z,95.190
2023-12-01T01:12:15.364Z,95.324
2023-12-01T01:13:16.058Z,95.143
2023-12-01T01:15:15.418Z,95.255
2023-12-01T01:16:15.722Z,95.226
2023-12-01T01:17:15.711Z,95.413
2023-12-01T01:18:15.732Z,95.568
2023-12-01T01:19:16.561Z,95.551
2023-12-01T01:20:15.850Z,95.816
2023-12-01T01:21:15.455Z,95.656
2023-12-01T01:24:15.272Z,95.776
2023-12-01T01:25:16.016Z,95.698
2023-12-01T01:26:16.245Z,95.785
2023-12-01T01:27:15.793Z,95.812
2023-12-01T01:30:15.036Z,95.926
2023-12-01T01:31:15.876Z,95.898
2023-12-01T01:32:15.700Z,95.820
2023-12-01T01:33:15.816Z,95.823
2023-12-01T01:34:15.816Z,95.921
2023-12-01T01:35:15.969Z,96.066
2023-12-01T01:36:15.514Z,96.077
2023-12-01T01:37:15.223Z,96.008
2023-12-01T01:38:15.780Z,96.115
2023-12-01T01:39:15.460Z,96.081
2023-12-01T01:40:15.630Z,96.163
2023-12-01T01:42:14.972Z,96.174
2023-12-01T01:43:15.722Z,96.001
2023-12-01T01:44:15.525Z,95.946
2023-12-01T01:45:15.569Z,95.869
2023-12-01T01:46:16.026Z,95.724
2023-12-01T01:47:14.985Z,95.663
2023-12-01T01:49:15.955Z,95.671
2023-12-01T01:50:15.992Z,95.684
2023-12-01T01:51:16.052Z,95.699
2023-12-01T01:52:15.652Z,95.791
2023-12-01T01:55:15.633Z,95.471
2023-12-01T01:56:15.206Z,95.537
2023-12-01T01:57:15.739Z,95.583
2023-12-01T01:58:15.552Z,95.690
2023-12-01T01:59:15.589Z,95.822
2023-12-01T02:00:15.616Z,95.705
2023-12-01T02:01:15.910Z,95.614
2023-12-01T02:02:16.461Z,95.528
2023-12-01T02:03:15.964Z,95.459
2023-12-01T02:04:16.079Z,95.369
2023-12-01T02:05:16.064Z,95.429
2023-12-01T02:06:15.541Z,95.495
2023-12-01T02:08:15.697Z,95.522
2023-12-01T02:09:15.291Z,95.490
2023-12-01T02:10:16.030Z,95.545
2023-12-01T02:11:15.526Z,95.472
2023-12-01T02:12:15.012Z,95.387
2023-12-01T02:13:15.773Z,95.465
2023-12-01T02:14:15.752Z,95.270
2023-12-01T02:15:15.267Z,95.276
2023-12-01T02:16:16.102Z,95.272
2023-12-01T02:17:15.995Z,95.280
2023-12-01T02:18:16.060Z,95.226
2023-12-01T02:19:15.932Z,95.184
2023-12-01T02:20:16.591Z,95.318
2023-12-01T02:21:16.258Z,95.360
2023-12-01T02:22:16.396Z,95.390
2023-12-01T02:23:15.875Z,95.482
2023-12-01T02:24:15.434Z,95.564
2023-12-01T02:25:15.179Z,95.497
2023-12-01T02:26:15.839Z,95.518
2023-12-01T02:27:15.593Z,95.394
2023-12-01T02:28:15.840Z,95.406
2023-12-01T02:29:17.556Z,95.358
2023-12-01T02:30:15.204Z,95.432
2023-12-01T02:31:16.124Z,95.467
2023-12-01T02:33:15.979Z,95.490
2023-12-01T02:34:15.553Z,95.385
2023-12-01T02:35:15.221Z,95.446
2023-12-01T02:36:15.731Z,95.347
2023-12-01T02:37:15.632Z,95.406
2023-12-01T02:38:15.349Z,95.663
2023-12-01T02:39:15.432Z,95.452
2023-12-01T02:40:15.266Z,95.402
2023-12-01T02:41:16.325Z,95.438
2023-12-01T02:42:15.895Z,95.455
2023-12-01T02:43:15.729Z,95.543
2023-12-01T02:44:15.924Z,95.593
2023-12-01T02:46:16.249Z,95.698
2023-12-01T02:47:15.147Z,95.543
2023-12-01T02:48:15.738Z,95.682
2023-12-01T02:49:15.367Z,95.699
2023-12-01T02:50:14.962Z,95.753
2023-12-01T02:51:15.524Z,95.709
2023-12-01T02:52:15.277Z,95.762
2023-12-01T02:53:15.884Z,95.568
2023-12-01T02:54:15.416Z,95.476
2023-12-01T02:55:15.033Z,95.516
2023-12-01T02:56:15.858Z,95.648
2023-12-01T02:57:15.708Z,95.644
2023-12-01T02:58:15.955Z,95.684
2023-12-01T03:01:15.727Z,95.627
2023-12-01T03:02:15.937Z,95.604
2023-12-01T03:03:15.640Z,95.705
2023-12-01T03:06:15.354Z,95.566
2023-12-01T03:07:16.553Z,95.566
2023-12-01T03:08:15.547Z,95.617
2023-12-01T03:09:15.164Z,95.671
2023-12-01T03:10:15.947Z,95.701
2023-12-01T03:11:15.701Z,95.646
2023-12-01T03:12:17.672Z,95.701
2023-12-01T03:13:16.004Z,95.793
2023-12-01T03:14:15.973Z,95.753
2023-12-01T03:15:19.935Z,95.804
2023-12-01T03:16:16.115Z,95.770
2023-12-01T03:19:15.343Z,95.917
2023-12-01T03:20:16.030Z,95.785
2023-12-01T03:21:16.354Z,95.911
2023-12-01T03:23:15.571Z,95.850
2023-12-01T03:24:15.180Z,95.864
2023-12-01T03:25:16.910Z,95.833
2023-12-01T03:26:15.770Z,95.810
2023-12-01T03:27:15.876Z,95.747
2023-12-01T03:28:16.393Z,95.701
2023-12-01T03:29:15.226Z,95.707
2023-12-01T03:30:15.780Z,95.680
2023-12-01T03:31:16.320Z,95.722
2023-12-01T03:32:15.197Z,95.741
2023-12-01T03:33:15.807Z,95.713
2023-12-01T03:34:15.550Z,95.762
2023-12-01T03:37:15.668Z,95.629
2023-12-01T03:39:15.687Z,95.486
2023-12-01T03:40:15.934Z,95.469
2023-12-01T03:41:15.997Z,95.472
2023-12-01T03:42:15.780Z,95.369
2023-12-01T03:43:16.034Z,95.455
2023-12-01T03:44:15.673Z,95.297
2023-12-01T03:46:15.640Z,95.265
2023-12-01T03:48:15.117Z,95.419
2023-12-01T03:49:15.987Z,95.385
2023-12-01T03:50:15.772Z,95.373
2023-12-01T03:51:15.760Z,95.379
2023-12-01T03:52:15.661Z,95.411
2023-12-01T03:53:15.752Z,95.333
2023-12-01T03:54:15.224Z,95.352
2023-12-01T03:55:16.314Z,95.301
2023-12-01T03:56:15.905Z,95.354
2023-12-01T03:57:15.949Z,95.335
2023-12-01T03:58:16.135Z,95.398
2023-12-01T03:59:15.822Z,95.326
2023-12-01T04:01:15.441Z,95.368
2023-12-01T04:02:15.586Z,95.268
2023-12-01T04:05:15.695Z,95.425
2023-12-01T04:06:15.604Z,95.438
2023-12-01T04:07:15.754Z,95.452
2023-12-01T04:08:16.125Z,95.390
2023-12-01T04:10:15.941Z,95.398
2023-12-01T04:11:16.374Z,95.448
2023-12-01T04:12:14.994Z,95.455
2023-12-01T04:13:16.151Z,95.415
2023-12-01T04:14:16.126Z,95.398
2023-12-01T04:15:15.767Z,95.341
2023-12-01T04:18:16.116Z,95.394
2023-12-01T04:19:15.907Z,95.314
2023-12-01T04:20:15.570Z,95.410
2023-12-01T04:21:15.692Z,95.425
2023-12-01T04:22:15.639Z,95.354
2023-12-01T04:23:15.736Z,95.263
2023-12-01T04:24:15.811Z,95.354
2023-12-01T04:25:16.031Z,95.402
2023-12-01T04:28:15.775Z,95.158
2023-12-01T04:29:15.273Z,95.150
2023-12-01T04:30:15.824Z,95.181
2023-12-01T04:31:20.838Z,95.253
2023-12-01T04:34:15.699Z,95.238
2023-12-01T04:35:15.585Z,95.211
2023-12-01T04:36:15.107Z,95.078
2023-12-01T04:37:16.036Z,95.205
2023-12-01T04:38:15.837Z,95.148
2023-12-01T04:39:15.909Z,95.081
2023-12-01T04:40:16.453Z,95.364
2023-12-01T04:41:16.017Z,95.240
2023-12-01T04:42:15.509Z,95.312
2023-12-01T04:44:15.867Z,95.392
2023-12-01T04:45:15.495Z,95.604
2023-12-01T04:46:15.489Z,95.585
2023-12-01T04:47:15.448Z,95.474
2023-12-01T04:48:15.787Z,95.600
2023-12-01T04:49:16.589Z,95.524
2023-12-01T04:50:15.189Z,95.493
2023-12-01T04:51:15.711Z,95.484
2023-12-01T04:52:15.930Z,95.600
2023-12-01T04:53:15.853Z,95.598
2023-12-01T04:54:15.411Z,95.646
2023-12-01T04:55:15.266Z,95.814
2023-12-01T04:56:14.896Z,95.894
2023-12-01T04:57:16.115Z,95.864
2023-12-01T04:58:15.818Z,95.883
2023-12-01T05:00:15.182Z,96.140
2023-12-01T05:01:15.924Z,95.961
2023-12-01T05:02:15.576Z,95.987
2023-12-01T05:03:15.890Z,96.274
2023-12-01T05:04:16.237Z,96.468
2023-12-01T05:05:15.859Z,96.434
2023-12-01T05:07:15.951Z,96.438
2023-12-01T05:08:15.915Z,96.493
2023-12-01T05:09:15.413Z,96.434
2023-12-01T05:10:16.128Z,96.478
2023-12-01T05:11:14.953Z,96.470
2023-12-01T05:12:16.205Z,96.546
2023-12-01T05:13:16.494Z,96.680
2023-12-01T05:14:15.204Z,96.655
2023-12-01T05:15:15.692Z,96.670
2023-12-01T05:16:15.531Z,96.758
2023-12-01T05:17:15.692Z,96.855
2023-12-01T05:18:15.761Z,96.691
2023-12-01T05:19:15.876Z,96.846
2023-12-01T05:20:15.748Z,96.794
2023-12-01T05:22:16.047Z,96.659
2023-12-01T05:23:16.849Z,96.749
2023-12-01T05:24:15.372Z,96.852
2023-12-01T05:25:15.265Z,96.976
2023-12-01T05:27:15.592Z,96.880
2023-12-01T05:28:15.698Z,96.937
2023-12-01T05:30:14.917Z,97.019
2023-12-01T05:31:15.792Z,97.084
2023-12-01T05:32:15.750Z,97.019
2023-12-01T05:33:15.733Z,97.182
2023-12-01T05:34:16.733Z,97.050
2023-12-01T05:35:15.829Z,96.958
2023-12-01T05:36:15.924Z,96.924
2023-12-01T05:37:16.117Z,97.061
2023-12-01T05:39:15.519Z,97.098
2023-12-01T05:40:15.353Z,96.985
2023-12-01T05:41:15.397Z,96.802
2023-12-01T05:42:15.837Z,96.836
2023-12-01T05:43:15.774Z,97.021
2023-12-01T05:44:15.590Z,96.943
2023-12-01T05:45:15.594Z,96.983
2023-12-01T05:46:15.744Z,96.995
2023-12-01T05:47:15.702Z,96.987
2023-12-01T05:48:16.518Z,97.117
2023-12-01T05:49:15.920Z,97.149
2023-12-01T05:50:15.904Z,97.170
2023-12-01T05:51:15.991Z,97.281
2023-12-01T05:52:16.160Z,97.275
2023-12-01T05:53:15.772Z,97.309
2023-12-01T05:55:17.084Z,97.376
2023-12-01T05:56:14.902Z,97.309
2023-12-01T05:57:15.394Z,97.292
2023-12-01T05:58:15.655Z,97.279
2023-12-01T05:59:15.521Z,97.489
2023-12-01T06:00:15.625Z,97.471
2023-12-01T06:01:15.778Z,97.492
2023-12-01T06:02:16.478Z,97.618
2023-12-01T06:04:16.089Z,97.553
2023-12-01T06:05:15.982Z,97.504
2023-12-01T06:06:16.010Z,97.714
2023-12-01T06:07:15.703Z,97.590
2023-12-01T06:08:15.899Z,97.689
2023-12-01T06:11:15.667Z,97.822
2023-12-01T06:12:15.448Z,97.887
2023-12-01T06:13:15.628Z,97.840
2023-12-01T06:14:15.290Z,97.773
2023-12-01T06:15:15.785Z,97.838
2023-12-01T06:16:15.874Z,97.920
2023-12-01T06:17:15.833Z,98.002
2023-12-01T06:18:15.528Z,97.853
2023-12-01T06:19:17.026Z,97.923
2023-12-01T06:20:15.563Z,98.065
2023-12-01T06:21:15.649Z,98.032
2023-12-01T06:22:15.468Z,97.986
2023-12-01T06:25:15.517Z,98.128
2023-12-01T06:26:15.480Z,98.047
2023-12-01T06:27:14.995Z,98.076
2023-12-01T06:28:16.599Z,98.103
2023-12-01T06:30:15.808Z,98.133
2023-12-01T06:31:17.745Z,98.267
2023-12-01T06:32:15.960Z,98.343
2023-12-01T06:33:15.965Z,98.307
2023-12-01T06:34:16.130Z,98.194
2023-12-01T06:35:15.742Z,98.280
2023-12-01T06:38:15.899Z,98.198
2023-12-01T06:40:16.669Z,98.303
2023-12-01T06:41:15.338Z,98.372
2023-12-01T06:42:15.808Z,98.284
2023-12-01T06:43:16.394Z,98.238
2023-12-01T06:44:14.991Z,98.248
2023-12-01T06:45:15.814Z,98.307
2023-12-01T06:46:15.482Z,98.284
2023-12-01T06:47:15.493Z,98.294
2023-12-01T06:48:15.524Z,98.313
2023-12-01T06:50:15.074Z,98.276
2023-12-01T06:51:15.599Z,98.374
2023-12-01T06:52:15.355Z,98.309
2023-12-01T06:53:15.680Z,98.368
2023-12-01T06:55:15.727Z,98.324
2023-12-01T06:57:15.706Z,98.387
2023-12-01T06:58:15.837Z,98.404
2023-12-01T06:59:18.401Z,98.278
2023-12-01T07:00:14.886Z,98.232
2023-12-01T07:01:16.026Z,98.288
2023-12-01T07:02:16.208Z,98.305
2023-12-01T07:04:15.573Z,98.374
2023-12-01T07:05:15.162Z,98.450
2023-12-01T07:06:15.709Z,98.383
2023-12-01T07:07:15.373Z,98.385
2023-12-01T07:08:15.860Z,98.397
2023-12-01T07:09:15.220Z,98.389
2023-12-01T07:10:15.994Z,98.440
2023-12-01T07:11:15.793Z,98.486
2023-12-01T07:15:15.939Z,98.524
2023-12-01T07:16:15.722Z,98.528
2023-12-01T07:17:16.225Z,98.532
2023-12-01T07:18:15.220Z,98.604
2023-12-01T07:19:16.002Z,98.467
2023-12-01T07:20:15.765Z,98.528
2023-12-01T07:22:15.196Z,98.606
2023-12-01T07:23:17.791Z,98.669
2023-12-01T07:24:15.777Z,98.673
2023-12-01T07:25:15.789Z,98.669
2023-12-01T07:26:15.874Z,98.723
2023-12-01T07:27:15.822Z,98.667
2023-12-01T07:28:16.065Z,98.690
2023-12-01T07:29:15.727Z,98.679
2023-12-01T07:30:15.994Z,98.744
2023-12-01T07:31:16.642Z,98.837
2023-12-01T07:32:15.407Z,98.761
2023-12-01T07:33:15.054Z,98.843
2023-12-01T07:34:15.916Z,98.829
2023-12-01T07:35:15.724Z,98.768
2023-12-01T07:36:23.098Z,98.770
2023-12-01T07:38:15.613Z,98.730
2023-12-01T07:39:16.701Z,98.788
2023-12-01T07:40:15.816Z,98.793
2023-12-01T07:41:15.867Z,98.784
2023-12-01T07:42:15.894Z,98.740
2023-12-01T07:43:15.803Z,98.755
2023-12-01T07:44:16.183Z,98.734
2023-12-01T07:45:16.989Z,98.826
2023-12-01T07:46:16.203Z,98.812
2023-12-01T07:48:15.290Z,98.797
2023-12-01T07:49:19.728Z,98.681
2023-12-01T07:50:15.654Z,98.681
2023-12-01T07:52:15.660Z,98.740
2023-12-01T07:53:15.802Z,98.757
2023-12-01T07:54:15.739Z,98.637
2023-12-01T07:55:15.948Z,98.648
2023-12-01T07:56:15.153Z,98.671
2023-12-01T07:57:15.799Z,98.664
2023-12-01T07:58:16.250Z,98.667
2023-12-01T07:59:15.081Z,98.664
2023-12-01T08:00:16.654Z,98.614
2023-12-01T08:01:16.310Z,98.580
2023-12-01T08:03:15.579Z,98.623
2023-12-01T08:04:15.943Z,98.658
2023-12-01T08:05:16.551Z,98.519
2023-12-01T08:07:18.523Z,98.501
2023-12-01T08:08:15.696Z,98.587
2023-12-01T08:09:15.321Z,98.570
2023-12-01T08:10:17.549Z,98.589
2023-12-01T08:11:15.967Z,98.616
2023-12-01T08:12:15.985Z,98.568
2023-12-01T08:13:15.884Z,98.524
2023-12-01T08:15:15.724Z,98.601
2023-12-01T08:16:16.041Z,98.631
2023-12-01T08:17:15.561Z,98.591
2023-12-01T08:18:15.707Z,98.526
2023-12-01T08:19:16.005Z,98.564
2023-12-01T08:20:15.090Z,98.574
2023-12-01T08:21:18.164Z,98.583
2023-12-01T08:22:15.925Z,98.566
2023-12-01T08:24:15.912Z,98.490
2023-12-01T08:25:16.240Z,98.492
2023-12-01T08:26:14.970Z,98.330
2023-12-01T08:27:17.218Z,98.370
2023-12-01T08:28:15.809Z,98.362
2023-12-01T08:29:15.377Z,98.337
2023-12-01T08:30:26.317Z,98.248
2023-12-01T08:31:15.094Z,98.166
2023-12-01T08:32:16.329Z,98.097
2023-12-01T08:33:15.206Z,97.929
2023-12-01T08:34:26.840Z,97.941
2023-12-01T08:35:15.626Z,97.901
2023-12-01T08:36:20.676Z,97.904
2023-12-01T08:37:22.244Z,97.882
2023-12-01T08:39:15.294Z,97.799
2023-12-01T08:40:17.850Z,97.838
2023-12-01T08:41:15.634Z,97.632
2023-12-01T08:42:15.785Z,97.662
2023-12-01T08:43:15.416Z,97.548
2023-12-01T08:44:15.189Z,97.378
2023-12-01T08:45:16.082Z,97.256
2023-12-01T08:47:15.873Z,97.279
2023-12-01T08:49:15.912Z,96.998
2023-12-01T08:50:21.050Z,97.071
2023-12-01T08:51:16.326Z,96.924
2023-12-01T08:52:15.118Z,96.888
2023-12-01T08:53:15.908Z,96.882
2023-12-01T08:54:22.590Z,96.781
2023-12-01T08:55:16.572Z,96.708
2023-12-01T08:56:15.175Z,96.676
2023-12-01T08:57:15.818Z,96.638
2023-12-01T08:58:15.350Z,96.558
2023-12-01T08:59:15.032Z,96.537
2023-12-01T09:00:15.920Z,96.533
2023-12-01T09:01:15.882Z,96.678
2023-12-01T09:02:21.494Z,96.707
2023-12-01T09:04:16.441Z,96.798
2023-12-01T09:05:15.738Z,96.728
2023-12-01T09:06:16.010Z,96.602
2023-12-01T09:07:15.844Z,96.699
2023-12-01T09:08:15.968Z,96.796
2023-12-01T09:09:15.760Z,96.602
2023-12-01T09:11:15.125Z,96.672
2023-12-01T09:12:16.199Z,96.699
2023-12-01T09:13:17.405Z,96.686
2023-12-01T09:14:15.085Z,96.747
2023-12-01T09:15:15.778Z,96.687
2023-12-01T09:16:15.602Z,96.726
2023-12-01T09:17:15.645Z,96.619
2023-12-01T09:18:16.022Z,96.823
2023-12-01T09:19:16.153Z,96.836
2023-12-01T09:21:16.125Z,96.783
2023-12-01T09:22:16.082Z,96.567
2023-12-01T09:23:15.927Z,96.506
2023-12-01T09:24:15.810Z,96.319
2023-12-01T09:25:17.460Z,96.487
2023-12-01T09:26:15.734Z,96.508
2023-12-01T09:27:15.724Z,96.676
2023-12-01T09:28:15.771Z,96.806
2023-12-01T09:29:15.530Z,97.130
2023-12-01T09:30:15.729Z,97.174
2023-12-01T09:31:15.780Z,97.403
2023-12-01T09:32:15.746Z,97.573
2023-12-01T09:33:15.973Z,97.660
2023-12-01T09:36:16.059Z,97.624
2023-12-01T09:38:15.834Z,97.433
2023-12-01T09:39:15.588Z,97.258
2023-12-01T09:40:15.117Z,97.389
2023-12-01T09:41:15.217Z,97.117
2023-12-01T09:42:15.713Z,97.202
2023-12-01T09:43:15.919Z,97.079
2023-12-01T09:44:20.553Z,97.065
2023-12-01T09:47:15.811Z,96.785
2023-12-01T09:48:16.074Z,96.834
2023-12-01T09:49:15.832Z,96.970
2023-12-01T09:50:15.389Z,96.844
2023-12-01T09:51:15.457Z,96.718
2023-12-01T09:52:15.206Z,96.602
2023-12-01T09:53:15.896Z,96.245
2023-12-01T09:54:16.700Z,96.049
2023-12-01T09:56:15.438Z,95.472
2023-12-01T09:57:17.005Z,95.305
2023-12-01T09:58:15.797Z,95.442
2023-12-01T10:00:15.922Z,95.053
2023-12-01T10:02:16.112Z,95.076
2023-12-01T10:03:15.362Z,94.816
2023-12-01T10:04:15.836Z,94.750
2023-12-01T10:05:16.502Z,94.963
2023-12-01T10:06:15.782Z,94.984
2023-12-01T10:08:15.113Z,94.700
2023-12-01T10:09:16.132Z,94.656
2023-12-01T10:10:15.746Z,94.568
2023-12-01T10:11:15.532Z,94.402
2023-12-01T10:12:15.674Z,94.835
2023-12-01T10:13:18.394Z,94.841
2023-12-01T10:14:14.985Z,94.784
2023-12-01T10:15:15.785Z,94.559
2023-12-01T10:16:15.891Z,95.364
2023-12-01T10:17:15.999Z,95.116
2023-12-01T10:18:24.944Z,95.328
2023-12-01T10:21:15.952Z,95.154
2023-12-01T10:22:15.677Z,95.230
2023-12-01T10:23:15.388Z,95.375
2023-12-01T10:24:14.929Z,95.232
2023-12-01T10:25:15.463Z,95.263
2023-12-01T10:26:15.510Z,95.255
2023-12-01T10:27:15.995Z,94.927
2023-12-01T10:29:15.782Z,95.471
2023-12-01T10:30:16.134Z,95.339
2023-12-01T10:31:14.977Z,94.799
2023-12-01T10:32:15.761Z,94.389
2023-12-01T10:33:15.756Z,94.887
2023-12-01T10:34:15.726Z,95.421
2023-12-01T10:35:15.276Z,95.202
2023-12-01T10:36:16.307Z,95.629
2023-12-01T10:37:15.888Z,95.734
2023-12-01T10:39:15.586Z,95.898
2023-12-01T10:40:15.598Z,95.602
2023-12-01T10:41:15.693Z,95.667
2023-12-01T10:42:15.839Z,95.879
2023-12-01T10:43:15.833Z,95.926
2023-12-01T10:44:15.874Z,95.875
2023-12-01T10:45:15.648Z,96.438
2023-12-01T10:46:16.289Z,96.476
2023-12-01T10:47:17.629Z,96.497
2023-12-01T10:48:16.195Z,96.434
2023-12-01T10:50:15.869Z,96.438
2023-12-01T10:51:15.936Z,96.291
2023-12-01T10:53:15.187Z,96.369
2023-12-01T10:54:15.993Z,96.428
2023-12-01T10:56:15.874Z,96.403
2023-12-01T10:57:16.240Z,96.134
2023-12-01T10:58:15.021Z,95.997
2023-12-01T10:59:15.748Z,95.967
2023-12-01T11:00:15.552Z,96.050
2023-12-01T11:01:15.336Z,95.375
2023-12-01T11:02:15.842Z,95.701
2023-12-01T11:03:17.920Z,95.486
2023-12-01T11:04:15.492Z,95.305
2023-12-01T11:06:15.150Z,95.045
2023-12-01T11:07:15.531Z,95.207
2023-12-01T11:08:15.609Z,95.020
2023-12-01T11:09:15.794Z,94.553
2023-12-01T11:11:15.258Z,94.814
2023-12-01T11:12:15.329Z,94.851
2023-12-01T11:13:15.947Z,95.110
2023-12-01T11:14:15.156Z,94.965
2023-12-01T11:15:16.749Z,95.482
2023-12-01T11:16:15.705Z,95.286
2023-12-01T11:17:20.405Z,94.656
2023-12-01T11:19:15.735Z,95.169
2023-12-01T11:20:15.524Z,94.820
2023-12-01T11:21:15.389Z,95.667
2023-12-01T11:22:15.582Z,95.476
2023-12-01T11:23:16.768Z,95.081
2023-12-01T11:24:16.571Z,95.642
2023-12-01T11:27:16.088Z,95.514
2023-12-01T11:29:18.682Z,95.274
2023-12-01T11:32:16.353Z,95.396
2023-12-01T11:33:15.932Z,95.541
2023-12-01T11:34:15.821Z,95.467
2023-12-01T11:36:15.784Z,95.642
2023-12-01T11:37:15.843Z,95.812
2023-12-01T11:38:15.716Z,95.904
2023-12-01T11:39:16.088Z,95.747
2023-12-01T11:40:15.867Z,95.801
2023-12-01T11:41:15.929Z,95.823
2023-12-01T11:42:15.684Z,96.136
2023-12-01T11:43:37.809Z,96.117
2023-12-01T11:44:15.800Z,96.539
2023-12-01T11:45:16.404Z,96.068
2023-12-01T11:46:15.921Z,96.195
2023-12-01T11:47:18.554Z,96.300
2023-12-01T11:48:16.354Z,96.138
2023-12-01T11:49:16.796Z,96.419
2023-12-01T11:50:15.603Z,96.388
2023-12-01T11:51:15.737Z,96.188
2023-12-01T11:52:15.840Z,95.864
2023-12-01T11:53:16.036Z,95.892
2023-12-01T11:54:15.170Z,96.005
2023-12-01T11:55:16.153Z,95.932
2023-12-01T11:57:15.907Z,95.572
2023-12-01T11:58:16.201Z,95.955
2023-12-01T11:59:15.809Z,96.127
2023-12-01T12:00:15.916Z,95.045
2023-12-01T12:01:15.537Z,94.908
2023-12-01T12:02:15.524Z,95.114
2023-12-01T12:03:15.792Z,95.062
2023-12-01T12:04:15.924Z,95.034
2023-12-01T12:05:15.040Z,94.208
2023-12-01T12:06:15.151Z,94.820
2023-12-01T12:07:15.288Z,94.435
2023-12-01T12:08:15.845Z,94.771
2023-12-01T12:09:15.987Z,94.366
2023-12-01T12:10:16.033Z,94.355
2023-12-01T12:11:15.520Z,94.702
2023-12-01T12:12:16.322Z,94.849
2023-12-01T12:13:15.486Z,94.139
2023-12-01T12:14:15.670Z,94.557
2023-12-01T12:15:15.580Z,94.959
2023-12-01T12:16:15.958Z,94.807
2023-12-01T12:17:16.022Z,95.059
2023-12-01T12:18:16.591Z,95.074
2023-12-01T12:19:16.259Z,94.610
2023-12-01T12:20:20.672Z,94.753
2023-12-01T12:22:16.061Z,94.757
2023-12-01T12:23:15.911Z,94.429
2023-12-01T12:24:16.313Z,94.368
2023-12-01T12:26:15.301Z,94.370
2023-12-01T12:27:15.456Z,94.214
2023-12-01T12:28:15.511Z,94.307
2023-12-01T12:29:15.436Z,94.355
2023-12-01T12:30:15.692Z,94.357
2023-12-01T12:31:16.036Z,93.971
2023-12-01T12:32:16.383Z,94.000
2023-12-01T12:33:15.967Z,94.038
2023-12-01T12:34:17.366Z,94.023
2023-12-01T12:35:16.356Z,94.023
2023-12-01T12:36:16.011Z,93.844
2023-12-01T12:37:15.915Z,93.918
2023-12-01T12:38:16.015Z,93.966
2023-12-01T12:39:16.122Z,93.895
2023-12-01T12:40:14.970Z,94.029
2023-12-01T12:41:15.533Z,94.000
2023-12-01T12:42:15.161Z,94.450
2023-12-01T12:43:15.326Z,93.731
2023-12-01T12:44:15.921Z,93.565
2023-12-01T12:45:15.694Z,93.607
2023-12-01T12:46:15.725Z,93.775
2023-12-01T12:47:16.289Z,93.405
2023-12-01T12:48:16.050Z,93.710
2023-12-01T12:50:15.843Z,93.380
2023-12-01T12:51:16.004Z,93.657
2023-12-01T12:52:15.643Z,93.607
2023-12-01T12:53:15.150Z,93.514
2023-12-01T12:54:15.912Z,93.577
2023-12-01T12:55:15.644Z,93.086
2023-12-01T12:56:15.571Z,93.538
2023-12-01T12:57:15.376Z,93.258
2023-12-01T13:00:15.802Z,93.290
2023-12-01T13:03:15.984Z,93.664
2023-12-01T13:04:15.106Z,93.132
2023-12-01T13:05:14.990Z,93.233
2023-12-01T13:06:16.017Z,93.306
2023-12-01T13:07:16.085Z,93.140
2023-12-01T13:08:15.623Z,93.338
2023-12-01T13:09:15.393Z,93.422
2023-12-01T13:10:14.981Z,93.598
2023-12-01T13:11:15.573Z,93.220
2023-12-01T13:12:15.767Z,93.111
2023-12-01T13:14:16.046Z,93.161
2023-12-01T13:15:14.994Z,93.266
2023-12-01T13:16:15.886Z,93.090
2023-12-01T13:18:16.138Z,93.310
2023-12-01T13:19:16.375Z,92.901
2023-12-01T13:20:15.896Z,93.275
2023-12-01T13:21:16.356Z,93.231
2023-12-01T13:22:15.122Z,93.235
2023-12-01T13:23:15.709Z,93.239
2023-12-01T13:24:15.675Z,93.084
2023-12-01T13:27:15.623Z,93.403
2023-12-01T13:28:15.629Z,92.877
2023-12-01T13:29:15.720Z,93.060
2023-12-01T13:30:15.882Z,92.928
2023-12-01T13:31:15.944Z,93.287
2023-12-01T13:32:15.906Z,92.827
2023-12-01T13:33:16.179Z,92.835
2023-12-01T13:34:15.157Z,92.550
2023-12-01T13:35:16.170Z,92.770
2023-12-01T13:36:16.295Z,93.189
2023-12-01T13:37:15.136Z,92.455
2023-12-01T13:38:15.939Z,92.781
2023-12-01T13:39:15.760Z,92.365
2023-12-01T13:40:15.781Z,92.907
2023-12-01T13:42:15.650Z,93.128
2023-12-01T13:44:15.211Z,93.393
2023-12-01T13:45:20.399Z,93.266
2023-12-01T13:48:15.953Z,92.751
2023-12-01T13:50:15.436Z,92.651
2023-12-01T13:51:15.121Z,93.052
2023-12-01T13:52:15.853Z,92.993
2023-12-01T13:53:15.365Z,92.888
2023-12-01T13:54:16.187Z,92.823
2023-12-01T13:55:15.959Z,93.123
2023-12-01T13:56:20.560Z,92.785
2023-12-01T13:57:15.733Z,92.871
2023-12-01T13:58:16.077Z,92.993
2023-12-01T13:59:15.353Z,92.905
2023-12-01T14:00:15.281Z,92.947
2023-12-01T14:01:16.274Z,93.002
2023-12-01T14:02:15.829Z,92.947
2023-12-01T14:03:32.349Z,92.886
2023-12-01T14:04:15.648Z,93.138
2023-12-01T14:05:15.248Z,92.795
2023-12-01T14:06:16.567Z,93.252
2023-12-01T14:07:15.537Z,93.302
2023-12-01T14:08:15.429Z,93.435
2023-12-01T14:10:16.123Z,93.176
2023-12-01T14:11:15.772Z,92.684
2023-12-01T14:12:16.739Z,92.672
2023-12-01T14:13:15.831Z,93.273
2023-12-01T14:14:16.019Z,93.170
2023-12-01T14:15:15.803Z,93.346
2023-12-01T14:16:16.144Z,93.432
2023-12-01T14:17:15.221Z,93.290
2023-12-01T14:18:16.217Z,93.411
2023-12-01T14:19:15.270Z,93.287
2023-12-01T14:20:16.096Z,93.388
2023-12-01T14:21:15.711Z,93.645
2023-12-01T14:22:15.509Z,94.134
2023-12-01T14:25:15.882Z,94.402
2023-12-01T14:26:15.794Z,94.589
2023-12-01T14:27:16.025Z,94.586
2023-12-01T14:28:16.363Z,94.820
2023-12-01T14:29:15.020Z,94.677
2023-12-01T14:30:16.019Z,94.999
2023-12-01T14:32:24.872Z,95.299
2023-12-01T14:35:16.010Z,95.286
2023-12-01T14:36:15.182Z,95.841
2023-12-01T14:37:14.902Z,95.734